createdAt,value
2023-02-16T00:00:16.752Z,84
2023-02-16T00:01:24.911Z,84
2023-02-16T00:02:33.156Z,84
2023-02-16T00:03:41.293Z,84.5
2023-02-16T00:04:50.461Z,84.5
2023-02-16T00:05:59.639Z,84
2023-02-16T00:07:08.805Z,83
2023-02-16T00:08:17.974Z,83.5
2023-02-16T00:09:27.157Z,83.5
2023-02-16T00:10:36.324Z,83
2023-02-16T00:11:45.598Z,83.5
2023-02-16T00:12:54.700Z,84
2023-02-16T00:14:03.878Z,84.5
2023-02-16T00:15:13.069Z,83.5
2023-02-16T00:16:22.214Z,83.5
2023-02-16T00:17:31.359Z,83
2023-02-16T00:18:39.541Z,83.5
2023-02-16T00:19:48.731Z,83
2023-02-16T00:20:57.883Z,83.5
2023-02-16T00:22:07.064Z,83.5
2023-02-16T00:23:16.236Z,83.5
2023-02-16T00:24:25.489Z,83.5
2023-02-16T00:25:34.598Z,83.5
2023-02-16T00:26:42.798Z,83.5
2023-02-16T00:27:51.087Z,84.5
2023-02-16T00:28:59.159Z,84.5
2023-02-16T00:30:07.346Z,84.5
2023-02-16T00:31:16.522Z,84
2023-02-16T00:32:25.694Z,86
2023-02-16T00:33:34.857Z,85
2023-02-16T00:34:44.056Z,86
2023-02-16T00:35:53.212Z,85.5
2023-02-16T00:37:02.391Z,85
2023-02-16T00:38:11.565Z,85.5
2023-02-16T00:39:20.739Z,85
2023-02-16T00:40:29.912Z,87
2023-02-16T00:41:39.080Z,85
2023-02-16T00:42:48.310Z,85
2023-02-16T00:43:57.434Z,85
2023-02-16T00:45:05.614Z,85.5
2023-02-16T00:46:14.784Z,85.5
2023-02-16T00:47:23.954Z,84.5
2023-02-16T00:48:33.138Z,85.5
2023-02-16T00:49:42.321Z,85
2023-02-16T00:50:51.477Z,85
2023-02-16T00:52:00.645Z,84.5
2023-02-16T00:53:08.851Z,85
2023-02-16T00:54:17.031Z,85.5
2023-02-16T00:55:26.224Z,86
2023-02-16T00:56:35.381Z,86.5
2023-02-16T00:57:43.733Z,87.5
2023-02-16T00:58:51.758Z,86.5
2023-02-16T01:00:00.930Z,85.5
2023-02-16T01:01:10.103Z,88
2023-02-16T01:02:19.274Z,86.5
2023-02-16T01:03:28.464Z,85.5
2023-02-16T01:04:37.614Z,86.5
2023-02-16T01:05:46.793Z,85.5
2023-02-16T01:06:55.986Z,87
2023-02-16T01:08:05.145Z,86
2023-02-16T01:09:14.376Z,85.5
2023-02-16T01:11:32.659Z,87.5
2023-02-16T01:12:41.827Z,88
2023-02-16T01:13:50.017Z,87.5
2023-02-16T01:14:58.232Z,87
2023-02-16T01:16:07.395Z,87
2023-02-16T01:17:16.574Z,86
2023-02-16T01:18:25.731Z,87
2023-02-16T01:19:34.907Z,86.5
2023-02-16T01:20:44.096Z,86.5
2023-02-16T01:21:53.253Z,86.5
2023-02-16T01:23:01.457Z,87.5
2023-02-16T01:24:09.662Z,87.5
2023-02-16T01:25:17.819Z,87
2023-02-16T01:26:26.033Z,87
2023-02-16T01:27:35.183Z,87
2023-02-16T01:28:44.469Z,87.5
2023-02-16T01:29:53.533Z,87
2023-02-16T01:31:02.702Z,87.5
2023-02-16T01:32:11.886Z,87.5
2023-02-16T01:33:21.064Z,86.5
2023-02-16T01:34:30.239Z,86.5
2023-02-16T01:35:39.404Z,87.5
2023-02-16T01:36:48.578Z,87.5
2023-02-16T01:37:57.752Z,87.5
2023-02-16T01:39:06.919Z,88
2023-02-16T01:40:16.089Z,88.5
2023-02-16T01:41:24.283Z,88
2023-02-16T01:42:33.455Z,88.5
2023-02-16T01:43:42.665Z,87.5
2023-02-16T01:44:51.806Z,88.5
2023-02-16T01:46:00.980Z,88.5
2023-02-16T01:47:10.149Z,88.5
2023-02-16T01:48:19.316Z,88.5
2023-02-16T01:49:27.514Z,88.5
2023-02-16T01:50:35.739Z,89.5
2023-02-16T01:51:43.891Z,89
2023-02-16T01:52:52.083Z,88.5
2023-02-16T01:54:01.269Z,88.5
2023-02-16T01:55:10.431Z,88.5
2023-02-16T01:56:19.661Z,88
2023-02-16T01:57:28.765Z,87.5
2023-02-16T01:58:37.970Z,89
2023-02-16T01:59:47.240Z,88.5
2023-02-16T02:00:56.346Z,88
2023-02-16T02:02:05.474Z,88.5
2023-02-16T02:03:14.664Z,88
2023-02-16T02:04:23.809Z,88
2023-02-16T02:05:32.987Z,88
2023-02-16T02:06:42.158Z,89
2023-02-16T02:07:50.346Z,89
2023-02-16T02:08:59.569Z,88.5
2023-02-16T02:10:08.723Z,89.5
2023-02-16T02:11:17.874Z,89.5
2023-02-16T02:12:27.030Z,88.5
2023-02-16T02:13:36.217Z,89
2023-02-16T02:14:45.384Z,88.5
2023-02-16T02:15:53.579Z,89.5
2023-02-16T02:17:01.772Z,89.5
2023-02-16T02:18:10.946Z,89
2023-02-16T02:19:20.127Z,88
2023-02-16T02:20:29.295Z,89
2023-02-16T02:21:38.457Z,89
2023-02-16T02:22:47.639Z,89
2023-02-16T02:23:56.805Z,89.5
2023-02-16T02:25:05.988Z,89.5
2023-02-16T02:26:15.160Z,89
2023-02-16T02:27:24.339Z,89
2023-02-16T02:28:33.500Z,90
2023-02-16T02:29:42.659Z,89.5
2023-02-16T02:30:51.869Z,91
2023-02-16T02:32:00.033Z,89.5
2023-02-16T02:33:09.258Z,90.5
2023-02-16T02:34:18.375Z,89.5
2023-02-16T02:35:27.559Z,89.5
2023-02-16T02:36:36.724Z,88.5
2023-02-16T02:37:45.922Z,89
2023-02-16T02:38:55.071Z,89
2023-02-16T02:40:03.258Z,89
2023-02-16T02:41:11.458Z,89
2023-02-16T02:42:20.635Z,89
2023-02-16T02:43:29.801Z,89
2023-02-16T02:44:39.009Z,88.5
2023-02-16T02:45:48.162Z,89.5
2023-02-16T02:46:57.327Z,89.5
2023-02-16T02:48:06.486Z,89.5
2023-02-16T02:49:15.657Z,90
2023-02-16T02:50:24.836Z,90
2023-02-16T02:51:34.045Z,91
2023-02-16T02:52:43.178Z,91
2023-02-16T02:53:52.351Z,90
2023-02-16T02:55:01.536Z,89.5
2023-02-16T02:56:09.732Z,90
2023-02-16T02:57:18.902Z,89
2023-02-16T02:58:28.066Z,89
2023-02-16T02:59:37.224Z,89.5
2023-02-16T03:00:46.397Z,89.5
2023-02-16T03:01:55.576Z,89.5
2023-02-16T03:03:04.765Z,89
2023-02-16T03:04:12.948Z,90
2023-02-16T03:05:22.135Z,90.5
2023-02-16T03:06:30.322Z,89.5
2023-02-16T03:07:38.495Z,89.5
2023-02-16T03:08:46.728Z,89
2023-02-16T03:09:54.878Z,90.5
2023-02-16T03:11:04.066Z,89.5
2023-02-16T03:12:12.249Z,89
2023-02-16T03:13:20.510Z,89
2023-02-16T03:14:29.621Z,88.5
2023-02-16T03:15:38.781Z,89
2023-02-16T03:16:47.962Z,89.5
2023-02-16T03:17:57.127Z,89.5
2023-02-16T03:19:06.306Z,88.5
2023-02-16T03:20:15.536Z,89.5
2023-02-16T03:21:24.645Z,88.5
2023-02-16T03:22:33.827Z,90
2023-02-16T03:23:43.050Z,89
2023-02-16T03:24:52.174Z,90
2023-02-16T03:26:01.380Z,89
2023-02-16T03:27:10.511Z,88.5
2023-02-16T03:28:18.716Z,89.5
2023-02-16T03:29:27.878Z,89.5
2023-02-16T03:30:37.039Z,90.5
2023-02-16T03:31:46.218Z,89
2023-02-16T03:32:55.393Z,89.5
2023-02-16T03:34:04.559Z,89
2023-02-16T03:35:13.757Z,89
2023-02-16T03:36:21.925Z,89.5
2023-02-16T03:37:30.189Z,89
2023-02-16T03:38:38.325Z,89
2023-02-16T03:39:46.555Z,88
2023-02-16T03:40:55.681Z,88.5
2023-02-16T03:42:04.850Z,88.5
2023-02-16T03:43:14.084Z,88.5
2023-02-16T03:44:23.199Z,87.5
2023-02-16T03:45:32.370Z,88
2023-02-16T03:46:41.595Z,88
2023-02-16T03:47:50.702Z,88.5
2023-02-16T03:48:59.896Z,88
2023-02-16T03:50:09.065Z,89
2023-02-16T03:51:18.225Z,87.5
2023-02-16T03:52:27.400Z,88
2023-02-16T03:53:36.569Z,87
2023-02-16T03:54:44.841Z,88.5
2023-02-16T03:55:53.937Z,87.5
2023-02-16T03:57:03.101Z,89
2023-02-16T03:58:12.414Z,87.5
2023-02-16T03:59:21.470Z,87.5
2023-02-16T04:00:30.738Z,88
2023-02-16T04:01:39.824Z,87.5
2023-02-16T04:02:48.001Z,88.5
2023-02-16T04:03:56.199Z,88
2023-02-16T04:05:05.360Z,87
2023-02-16T04:06:13.577Z,88
2023-02-16T04:07:21.747Z,89
2023-02-16T04:08:30.909Z,88.5
2023-02-16T04:09:40.106Z,89.5
2023-02-16T04:10:49.255Z,89.5
2023-02-16T04:11:58.437Z,88
2023-02-16T04:13:07.604Z,87.5
2023-02-16T04:14:16.788Z,88
2023-02-16T04:15:25.972Z,89
2023-02-16T04:16:35.133Z,88
2023-02-16T04:17:44.297Z,88
2023-02-16T04:18:53.496Z,88
2023-02-16T04:20:02.643Z,88.5
2023-02-16T04:21:11.822Z,88.5
2023-02-16T04:22:20.035Z,88.5
2023-02-16T04:23:29.190Z,89
2023-02-16T04:24:38.356Z,88.5
2023-02-16T04:25:47.582Z,88
2023-02-16T04:26:56.694Z,88
2023-02-16T04:28:05.927Z,89
2023-02-16T04:29:15.056Z,88.5
2023-02-16T04:30:23.267Z,88
2023-02-16T04:31:31.437Z,88.5
2023-02-16T04:32:39.612Z,88.5
2023-02-16T04:33:47.812Z,89
2023-02-16T04:34:56.998Z,90.5
2023-02-16T04:36:06.163Z,89
2023-02-16T04:38:24.500Z,88
2023-02-16T04:39:33.672Z,88.5
2023-02-16T04:40:42.859Z,87.5
2023-02-16T04:41:52.045Z,89.5
2023-02-16T04:43:01.192Z,87.5
2023-02-16T04:44:10.354Z,88.5
2023-02-16T04:45:19.540Z,88
2023-02-16T04:46:28.710Z,88
2023-02-16T04:47:37.919Z,88
2023-02-16T04:48:46.078Z,88
2023-02-16T04:49:55.243Z,89
2023-02-16T04:51:04.425Z,88
2023-02-16T04:52:13.583Z,88
2023-02-16T04:53:22.761Z,88
2023-02-16T04:54:31.929Z,88
2023-02-16T04:55:41.105Z,88.5
2023-02-16T04:56:50.281Z,89.5
2023-02-16T04:57:58.484Z,88
2023-02-16T04:59:06.673Z,88
2023-02-16T05:00:14.845Z,89.5
2023-02-16T05:01:23.062Z,89
2023-02-16T05:02:31.342Z,88
2023-02-16T05:03:39.437Z,87.5
2023-02-16T05:04:48.603Z,88
2023-02-16T05:05:56.788Z,89
2023-02-16T05:07:05.955Z,88.5
2023-02-16T05:08:15.150Z,89
2023-02-16T05:09:24.311Z,88.5
2023-02-16T05:10:33.477Z,89
2023-02-16T05:11:42.655Z,88.5
2023-02-16T05:12:51.845Z,90
2023-02-16T05:14:00.998Z,89.5
2023-02-16T05:15:10.172Z,88
2023-02-16T05:16:19.346Z,89
2023-02-16T05:17:28.549Z,89.5
2023-02-16T05:18:37.692Z,89
2023-02-16T05:19:46.863Z,88
2023-02-16T05:20:55.056Z,89.5
2023-02-16T05:22:04.226Z,89.5
2023-02-16T05:23:13.400Z,88.5
2023-02-16T05:24:22.582Z,88.5
2023-02-16T05:25:31.748Z,90.5
2023-02-16T05:26:39.982Z,88
2023-02-16T05:27:48.135Z,88
2023-02-16T05:28:57.301Z,89.5
2023-02-16T05:30:06.482Z,88.5
2023-02-16T05:31:15.648Z,89
2023-02-16T05:32:23.855Z,88
2023-02-16T05:33:32.034Z,89
2023-02-16T05:34:41.207Z,88.5
2023-02-16T05:35:50.371Z,88.5
2023-02-16T05:36:59.547Z,89
2023-02-16T05:38:08.724Z,88.5
2023-02-16T05:39:17.949Z,89.5
2023-02-16T05:40:27.070Z,90.5
2023-02-16T05:41:36.312Z,89
2023-02-16T05:42:45.421Z,88.5
2023-02-16T05:43:54.603Z,89
2023-02-16T05:45:03.829Z,89
2023-02-16T05:46:12.935Z,87.5
2023-02-16T05:47:22.121Z,88
2023-02-16T05:48:31.294Z,88.5
2023-02-16T05:49:39.488Z,89.5
2023-02-16T05:50:48.643Z,88.5
2023-02-16T05:51:57.818Z,89.5
2023-02-16T05:53:07.011Z,88.5
2023-02-16T05:54:16.159Z,88.5
2023-02-16T05:55:25.427Z,88.5
2023-02-16T05:56:33.536Z,89
2023-02-16T05:57:41.713Z,88.5
2023-02-16T05:58:50.884Z,89
2023-02-16T06:00:00.193Z,88
2023-02-16T06:01:09.251Z,87.5
2023-02-16T06:02:18.408Z,89.5
2023-02-16T06:03:27.583Z,87.5
2023-02-16T06:04:36.789Z,88
2023-02-16T06:05:45.923Z,87
2023-02-16T06:06:55.104Z,86.5
2023-02-16T06:08:04.273Z,86.5
2023-02-16T06:09:13.453Z,87.5
2023-02-16T06:10:22.634Z,87.5
2023-02-16T06:11:31.815Z,87
2023-02-16T06:12:39.983Z,87
2023-02-16T06:13:49.161Z,87
2023-02-16T06:14:58.324Z,87
2023-02-16T06:16:07.495Z,87
2023-02-16T06:17:16.676Z,87
2023-02-16T06:18:25.861Z,86.5
2023-02-16T06:19:35.028Z,87.5
2023-02-16T06:20:43.208Z,87
2023-02-16T06:21:52.384Z,87
2023-02-16T06:23:00.584Z,87.5
2023-02-16T06:24:08.772Z,88.5
2023-02-16T06:25:17.986Z,87.5
2023-02-16T06:26:27.110Z,87.5
2023-02-16T06:27:36.361Z,88
2023-02-16T06:28:45.485Z,88.5
2023-02-16T06:29:54.631Z,88
2023-02-16T06:31:03.808Z,86.5
2023-02-16T06:32:13.046Z,87
2023-02-16T06:33:22.159Z,87.5
2023-02-16T06:34:31.324Z,87.5
2023-02-16T06:35:40.501Z,86.5
2023-02-16T06:36:49.670Z,86
2023-02-16T06:37:58.852Z,86.5
2023-02-16T06:39:07.065Z,86.5
2023-02-16T06:40:16.205Z,87
2023-02-16T06:41:25.371Z,86.5
2023-02-16T06:42:34.545Z,86
2023-02-16T06:43:43.710Z,86.5
2023-02-16T06:44:52.897Z,86.5
2023-02-16T06:46:02.068Z,87
2023-02-16T06:47:10.314Z,86
2023-02-16T06:48:18.449Z,87.5
2023-02-16T06:49:26.647Z,86
2023-02-16T06:50:34.850Z,87
2023-02-16T06:51:44.050Z,86.5
2023-02-16T06:52:53.205Z,85.5
2023-02-16T06:54:02.379Z,85.5
2023-02-16T06:55:11.522Z,85
2023-02-16T06:56:20.843Z,87.5
2023-02-16T06:57:29.868Z,86
2023-02-16T06:58:39.049Z,85
2023-02-16T06:59:48.219Z,84.5
2023-02-16T07:00:57.409Z,85
2023-02-16T07:02:06.607Z,85
2023-02-16T07:03:15.792Z,85.5
2023-02-16T07:04:24.980Z,85.5
2023-02-16T07:05:33.101Z,85.5
2023-02-16T07:06:42.429Z,84.5
2023-02-16T07:07:51.449Z,85
2023-02-16T07:09:00.720Z,85
2023-02-16T07:10:09.876Z,84.5
2023-02-16T07:11:18.960Z,84.5
2023-02-16T07:12:28.139Z,84
2023-02-16T07:13:36.318Z,84.5
2023-02-16T07:14:44.555Z,84.5
2023-02-16T07:15:52.883Z,85.5
2023-02-16T07:17:00.938Z,84.5
2023-02-16T07:18:10.092Z,85
2023-02-16T07:19:19.375Z,84.5
2023-02-16T07:20:28.416Z,83.5
2023-02-16T07:21:37.613Z,84
2023-02-16T07:22:46.770Z,84
2023-02-16T07:23:56.043Z,84
2023-02-16T07:25:05.114Z,84.5
2023-02-16T07:26:14.278Z,84
2023-02-16T07:27:23.482Z,84.5
2023-02-16T07:28:32.676Z,84.5
2023-02-16T07:29:41.929Z,83.5
2023-02-16T07:30:50.968Z,84.5
2023-02-16T07:31:59.185Z,85
2023-02-16T07:33:08.358Z,84
2023-02-16T07:34:17.569Z,84.5
2023-02-16T07:35:26.675Z,84
2023-02-16T07:36:35.869Z,84
2023-02-16T07:37:45.027Z,86
2023-02-16T07:38:54.203Z,84
2023-02-16T07:40:02.388Z,85.5
2023-02-16T07:41:10.648Z,86
2023-02-16T07:42:18.800Z,84.5
2023-02-16T07:43:27.108Z,85.5
2023-02-16T07:45:45.436Z,84
2023-02-16T07:46:54.642Z,84.5
2023-02-16T07:48:03.654Z,83.5
2023-02-16T07:49:12.921Z,83
2023-02-16T07:50:22.006Z,85.5
2023-02-16T07:51:31.322Z,83.5
2023-02-16T07:52:40.356Z,82.5
2023-02-16T07:53:49.621Z,82.5
2023-02-16T07:54:58.721Z,82.5
2023-02-16T07:56:08.001Z,83
2023-02-16T07:57:17.078Z,83.5
2023-02-16T07:58:25.226Z,82.5
2023-02-16T07:59:34.445Z,83.5
2023-02-16T08:00:43.677Z,83.5
2023-02-16T08:01:52.867Z,82.5
2023-02-16T08:03:01.977Z,83.5
2023-02-16T08:04:11.219Z,84
2023-02-16T08:06:29.564Z,82
2023-02-16T08:07:38.928Z,83
2023-02-16T08:08:47.048Z,82.5
2023-02-16T08:09:55.304Z,82
2023-02-16T08:11:04.376Z,82
2023-02-16T08:12:13.553Z,82.5
2023-02-16T08:13:22.766Z,82
2023-02-16T08:14:31.896Z,83
2023-02-16T08:15:41.068Z,82.5
2023-02-16T08:16:50.250Z,82
2023-02-16T08:17:59.448Z,82.5
2023-02-16T08:19:08.593Z,83
2023-02-16T08:20:17.846Z,81.5
2023-02-16T08:21:26.933Z,80.5
2023-02-16T08:22:36.145Z,84.5
2023-02-16T08:23:45.288Z,83
2023-02-16T08:24:53.459Z,82
2023-02-16T08:26:02.659Z,81
2023-02-16T08:27:11.812Z,81.5
2023-02-16T08:28:20.997Z,80
2023-02-16T08:29:30.175Z,80.5
2023-02-16T08:30:39.349Z,81
2023-02-16T08:31:48.532Z,80.5
2023-02-16T08:32:56.712Z,81
2023-02-16T08:34:04.896Z,81.5
2023-02-16T08:35:13.084Z,80.5
2023-02-16T08:37:30.465Z,82
2023-02-16T08:38:38.645Z,80.5
2023-02-16T08:39:46.935Z,81.5
2023-02-16T08:40:55.999Z,81
2023-02-16T08:42:05.175Z,82
2023-02-16T08:43:14.408Z,81
2023-02-16T08:44:23.596Z,81
2023-02-16T08:45:32.864Z,80.5
2023-02-16T08:46:42.054Z,81.5
2023-02-16T08:47:51.029Z,81
2023-02-16T08:49:00.205Z,81
2023-02-16T08:50:09.419Z,82.5
2023-02-16T08:51:18.613Z,82
2023-02-16T08:52:27.730Z,83
2023-02-16T08:53:36.892Z,81
2023-02-16T08:54:46.206Z,81.5
2023-02-16T08:55:54.250Z,83.5
2023-02-16T08:57:02.472Z,79.5
2023-02-16T08:58:11.747Z,79
2023-02-16T08:59:20.885Z,81
2023-02-16T09:00:29.965Z,80.5
2023-02-16T09:01:39.201Z,81
2023-02-16T09:02:47.334Z,80
2023-02-16T09:03:55.526Z,81.5
2023-02-16T09:05:03.732Z,78.5
2023-02-16T09:06:11.905Z,79
2023-02-16T09:07:21.080Z,79
2023-02-16T09:08:30.248Z,79.5
2023-02-16T09:09:39.443Z,79
2023-02-16T09:10:48.599Z,79
2023-02-16T09:11:57.799Z,80
2023-02-16T09:13:06.929Z,80
2023-02-16T09:14:16.122Z,79.5
2023-02-16T09:15:25.301Z,80.5
2023-02-16T09:16:34.482Z,80.5
2023-02-16T09:17:43.718Z,81.5
2023-02-16T09:18:52.889Z,82
2023-02-16T09:20:01.977Z,81.5
2023-02-16T09:21:10.160Z,82
2023-02-16T09:22:19.354Z,80
2023-02-16T09:23:28.558Z,81.5
2023-02-16T09:24:37.784Z,80.5
2023-02-16T09:25:46.855Z,81.5
2023-02-16T09:26:56.018Z,80
2023-02-16T09:28:05.239Z,80
2023-02-16T09:29:13.544Z,79
2023-02-16T09:30:21.583Z,79.5
2023-02-16T09:31:29.822Z,80.5
2023-02-16T09:32:38.009Z,80
2023-02-16T09:33:47.134Z,80.5
2023-02-16T09:34:56.303Z,80.5
2023-02-16T09:36:05.481Z,79.5
2023-02-16T09:37:14.659Z,80
2023-02-16T09:38:23.955Z,79.5
2023-02-16T09:39:33.005Z,79
2023-02-16T09:40:42.218Z,79
2023-02-16T09:41:51.349Z,79.5
2023-02-16T09:43:00.517Z,79.5
2023-02-16T09:44:09.698Z,79.5
2023-02-16T09:45:18.890Z,78
2023-02-16T09:46:28.057Z,78.5
2023-02-16T09:47:36.234Z,80
2023-02-16T09:48:45.397Z,80
2023-02-16T09:49:54.608Z,78
2023-02-16T09:51:03.749Z,81
2023-02-16T09:52:13.022Z,80
2023-02-16T09:53:22.076Z,78
2023-02-16T09:54:31.262Z,78
2023-02-16T09:55:39.467Z,79.5
2023-02-16T09:56:47.703Z,77.5
2023-02-16T09:57:55.874Z,79
2023-02-16T09:59:04.182Z,78.5
2023-02-16T10:00:13.311Z,79.5
2023-02-16T10:01:22.384Z,79
2023-02-16T10:02:31.571Z,78.5
2023-02-16T10:03:40.815Z,79.5
2023-02-16T10:04:50.075Z,78.5
2023-02-16T10:07:08.251Z,79
2023-02-16T10:08:17.458Z,78
2023-02-16T10:09:26.635Z,78.5
2023-02-16T10:10:35.759Z,78.5
2023-02-16T10:11:44.928Z,78.5
2023-02-16T10:12:54.135Z,78
2023-02-16T10:14:02.284Z,78
2023-02-16T10:15:11.463Z,77.5
2023-02-16T10:16:20.631Z,78.5
2023-02-16T10:17:29.797Z,77.5
2023-02-16T10:18:38.974Z,77.5
2023-02-16T10:19:48.161Z,77
2023-02-16T10:20:57.307Z,77.5
2023-02-16T10:22:06.502Z,80.5
2023-02-16T10:23:14.695Z,77
2023-02-16T10:24:22.897Z,78.5
2023-02-16T10:25:32.041Z,77
2023-02-16T10:26:40.249Z,77.5
2023-02-16T10:27:48.434Z,78
2023-02-16T10:28:57.602Z,77.5
2023-02-16T10:30:06.771Z,77.5
2023-02-16T10:31:15.950Z,77.5
2023-02-16T10:32:25.166Z,79
2023-02-16T10:33:34.298Z,78
2023-02-16T10:34:43.574Z,78
2023-02-16T10:35:52.773Z,78.5
2023-02-16T10:37:01.824Z,79
2023-02-16T10:38:11.030Z,78.5
2023-02-16T10:39:20.226Z,78.5
2023-02-16T10:40:29.387Z,78.5
2023-02-16T10:41:38.502Z,79.5
2023-02-16T10:42:46.708Z,78.5
2023-02-16T10:43:55.866Z,78
2023-02-16T10:45:05.046Z,79
2023-02-16T10:46:14.235Z,79
2023-02-16T10:47:23.441Z,78.5
2023-02-16T10:48:32.549Z,79
2023-02-16T10:49:41.782Z,78.5
2023-02-16T10:50:50.951Z,78
2023-02-16T10:52:00.111Z,78
2023-02-16T10:53:09.253Z,78
2023-02-16T10:54:18.424Z,78
2023-02-16T10:55:27.587Z,78.5
2023-02-16T10:56:36.762Z,78
2023-02-16T10:57:45.009Z,78.5
2023-02-16T10:58:53.193Z,77.5
2023-02-16T11:00:01.352Z,79
2023-02-16T11:01:09.640Z,78
2023-02-16T11:02:18.730Z,77.5
2023-02-16T11:03:27.962Z,78
2023-02-16T11:04:37.045Z,78.5
2023-02-16T11:05:46.264Z,78
2023-02-16T11:06:55.383Z,78
2023-02-16T11:08:04.561Z,78.5
2023-02-16T11:09:13.835Z,78.5
2023-02-16T11:10:22.903Z,78.5
2023-02-16T11:11:32.104Z,78.5
2023-02-16T11:12:41.300Z,78
2023-02-16T11:13:50.463Z,78
2023-02-16T11:14:59.636Z,78.5
2023-02-16T11:16:07.782Z,77
2023-02-16T11:17:17.036Z,77.5
2023-02-16T11:18:26.139Z,77.5
2023-02-16T11:19:35.320Z,77.5
2023-02-16T11:20:44.518Z,77
2023-02-16T11:21:53.695Z,78
2023-02-16T11:23:02.849Z,77.5
2023-02-16T11:24:11.250Z,78.5
2023-02-16T11:25:19.224Z,77
2023-02-16T11:26:27.401Z,77.5
2023-02-16T11:27:36.595Z,77.5
2023-02-16T11:28:44.787Z,77
2023-02-16T11:29:53.944Z,77
2023-02-16T11:31:03.105Z,77
2023-02-16T11:32:12.284Z,77.5
2023-02-16T11:33:21.511Z,77
2023-02-16T11:34:30.626Z,77
2023-02-16T11:35:39.815Z,77
2023-02-16T11:36:49.082Z,77.5
2023-02-16T11:37:58.155Z,77
2023-02-16T11:39:07.316Z,77.5
2023-02-16T11:40:16.495Z,77
2023-02-16T11:41:25.659Z,78
2023-02-16T11:42:34.838Z,79
2023-02-16T11:46:02.347Z,79
2023-02-16T11:47:10.567Z,77
2023-02-16T11:48:18.744Z,78.5
2023-02-16T11:49:27.898Z,77.5
2023-02-16T11:50:37.097Z,77.5
2023-02-16T11:51:46.309Z,77.5
2023-02-16T11:52:55.540Z,78
2023-02-16T11:54:04.595Z,78
2023-02-16T11:55:13.907Z,78
2023-02-16T11:56:22.964Z,78.5
2023-02-16T11:57:32.102Z,78.5
2023-02-16T11:58:41.289Z,79.5
2023-02-16T11:59:49.472Z,78.5
2023-02-16T12:00:57.684Z,78
2023-02-16T12:02:06.836Z,79.5
2023-02-16T12:03:16.033Z,78
2023-02-16T12:04:25.199Z,79.5
2023-02-16T12:05:34.367Z,79.5
2023-02-16T12:06:43.523Z,80.5
2023-02-16T12:07:52.695Z,79.5
2023-02-16T12:09:01.860Z,80
2023-02-16T12:10:11.221Z,80
2023-02-16T12:11:20.219Z,81.5
2023-02-16T12:12:29.383Z,80
2023-02-16T12:13:38.563Z,80.5
2023-02-16T12:14:47.723Z,80.5
2023-02-16T12:15:55.904Z,82
2023-02-16T12:17:05.103Z,82
2023-02-16T12:18:14.268Z,83
2023-02-16T12:19:23.441Z,83.5
2023-02-16T12:20:32.654Z,83.5
2023-02-16T12:21:41.838Z,83
2023-02-16T12:22:51.095Z,84
2023-02-16T12:23:59.156Z,85
2023-02-16T12:25:07.348Z,84
2023-02-16T12:26:15.526Z,83.5
2023-02-16T12:27:23.726Z,84
2023-02-16T12:28:32.894Z,84.5
2023-02-16T12:29:42.063Z,83.5
2023-02-16T12:30:51.260Z,83.5
2023-02-16T12:32:00.411Z,84.5
2023-02-16T12:33:09.592Z,83
2023-02-16T12:34:18.759Z,84
2023-02-16T12:35:27.967Z,83
2023-02-16T12:36:37.102Z,85
2023-02-16T12:37:46.272Z,85.5
2023-02-16T12:38:55.444Z,85.5
2023-02-16T12:40:04.615Z,85
2023-02-16T12:41:13.824Z,85
2023-02-16T12:42:22.009Z,84.5
2023-02-16T12:43:31.147Z,85.5
2023-02-16T12:44:40.375Z,85
2023-02-16T12:45:49.484Z,87.5
2023-02-16T12:46:58.662Z,86.5
2023-02-16T12:48:06.867Z,87
2023-02-16T12:49:16.032Z,87
2023-02-16T12:50:24.239Z,85.5
2023-02-16T12:51:32.417Z,87
2023-02-16T12:52:41.584Z,85.5
2023-02-16T12:53:49.774Z,85.5
2023-02-16T12:54:57.970Z,85.5
2023-02-16T12:56:07.146Z,86.5
2023-02-16T12:58:25.536Z,88
2023-02-16T12:59:34.651Z,87.5
2023-02-16T13:00:43.837Z,86.5
2023-02-16T13:01:53.019Z,87
2023-02-16T13:03:02.179Z,86
2023-02-16T13:04:11.352Z,87
2023-02-16T13:05:20.587Z,86.5
2023-02-16T13:06:29.697Z,87
2023-02-16T13:07:38.876Z,86.5
2023-02-16T13:08:48.044Z,86.5
2023-02-16T13:09:56.223Z,87.5
2023-02-16T13:11:05.511Z,86.5
2023-02-16T13:12:14.585Z,86.5
2023-02-16T13:13:23.802Z,85
2023-02-16T13:14:32.920Z,86
2023-02-16T13:15:42.099Z,86.5
2023-02-16T13:16:51.331Z,85.5
2023-02-16T13:18:00.460Z,85
2023-02-16T13:19:08.795Z,85
2023-02-16T13:20:17.039Z,85.5
2023-02-16T13:21:26.175Z,87
2023-02-16T13:22:34.328Z,86
2023-02-16T13:24:52.565Z,87
2023-02-16T13:26:00.714Z,86.5
2023-02-16T13:27:10.073Z,88
2023-02-16T13:28:19.064Z,88.5
2023-02-16T13:29:28.415Z,89
2023-02-16T13:30:37.580Z,89
2023-02-16T13:31:46.715Z,89.5
2023-02-16T13:32:55.880Z,89.5
2023-02-16T13:34:05.150Z,88.5
2023-02-16T13:35:14.274Z,89.5
2023-02-16T13:36:23.466Z,90
2023-02-16T13:37:32.622Z,89.5
2023-02-16T13:38:41.783Z,89.5
2023-02-16T13:39:50.966Z,90.5
2023-02-16T13:40:59.164Z,89
2023-02-16T13:42:08.351Z,89.5
2023-02-16T13:43:17.467Z,89
2023-02-16T13:44:26.652Z,89
2023-02-16T13:45:35.793Z,88
2023-02-16T13:46:44.998Z,89.5
2023-02-16T13:47:53.266Z,88.5
2023-02-16T13:49:01.246Z,89
2023-02-16T13:50:10.477Z,88.5
2023-02-16T13:51:19.690Z,89
2023-02-16T13:52:28.734Z,88.5
2023-02-16T13:53:38.118Z,89.5
2023-02-16T13:54:46.328Z,88.5
2023-02-16T13:55:54.434Z,89
2023-02-16T13:57:03.622Z,88.5
2023-02-16T13:58:12.631Z,89
2023-02-16T13:59:22.003Z,88
2023-02-16T14:00:31.199Z,88
2023-02-16T14:01:40.342Z,89.5
2023-02-16T14:02:49.487Z,89
2023-02-16T14:03:58.698Z,88.5
2023-02-16T14:05:07.818Z,88.5
2023-02-16T14:06:17.013Z,89
2023-02-16T14:07:26.193Z,89
2023-02-16T14:08:35.389Z,88
2023-02-16T14:09:44.543Z,88.5
2023-02-16T14:10:52.624Z,88.5
2023-02-16T14:12:01.900Z,88
2023-02-16T14:13:11.108Z,87.5
2023-02-16T14:14:20.252Z,88
2023-02-16T14:15:29.417Z,89.5
2023-02-16T14:16:38.587Z,88.5
2023-02-16T14:17:47.727Z,89
2023-02-16T14:18:56.009Z,89
2023-02-16T14:20:04.034Z,88.5
2023-02-16T14:21:12.176Z,88
2023-02-16T14:22:20.376Z,88.5
2023-02-16T14:23:29.526Z,88.5
2023-02-16T14:24:38.716Z,88
2023-02-16T14:25:47.970Z,89
2023-02-16T14:26:57.043Z,89
2023-02-16T14:28:06.242Z,88.5
2023-02-16T14:29:15.385Z,88.5
2023-02-16T14:30:24.568Z,89
2023-02-16T14:31:33.751Z,89.5
2023-02-16T14:32:43.028Z,89
2023-02-16T14:33:52.114Z,89
2023-02-16T14:35:01.257Z,89
2023-02-16T14:36:10.611Z,90
2023-02-16T14:37:18.642Z,89
2023-02-16T14:38:27.801Z,89
2023-02-16T14:39:36.952Z,90.5
2023-02-16T14:40:46.139Z,89.5
2023-02-16T14:41:55.332Z,90.5
2023-02-16T14:43:04.516Z,89.5
2023-02-16T14:44:13.675Z,89.5
2023-02-16T14:45:21.850Z,90.5
2023-02-16T14:46:30.219Z,89
2023-02-16T14:47:38.255Z,89
2023-02-16T14:48:46.456Z,89
2023-02-16T14:49:55.612Z,89.5
2023-02-16T14:51:04.773Z,89.5
2023-02-16T14:52:13.983Z,89.5
2023-02-16T14:53:23.105Z,89
2023-02-16T14:54:32.281Z,89
2023-02-16T14:55:41.606Z,89
2023-02-16T14:56:50.611Z,89.5
2023-02-16T14:57:59.872Z,89.5
2023-02-16T14:59:09.009Z,89.5
2023-02-16T15:00:18.272Z,89.5
2023-02-16T15:01:27.390Z,89
2023-02-16T15:02:36.476Z,90.5
2023-02-16T15:03:44.678Z,89.5
2023-02-16T15:04:53.883Z,90
2023-02-16T15:06:03.014Z,89.5
2023-02-16T15:07:12.199Z,89.5
2023-02-16T15:08:21.381Z,89
2023-02-16T15:09:30.546Z,89
2023-02-16T15:10:39.774Z,90
2023-02-16T15:11:47.893Z,89
2023-02-16T15:12:56.088Z,89
2023-02-16T15:14:05.255Z,89
2023-02-16T15:15:14.434Z,88.5
2023-02-16T15:16:22.733Z,89
2023-02-16T15:17:30.869Z,88
2023-02-16T15:18:39.984Z,88
2023-02-16T15:19:49.169Z,88
2023-02-16T15:20:58.353Z,87.5
2023-02-16T15:22:07.486Z,87
2023-02-16T15:23:16.699Z,87
2023-02-16T15:24:25.870Z,87.5
2023-02-16T15:25:35.026Z,89.5
2023-02-16T15:26:44.315Z,88
2023-02-16T15:27:53.498Z,88
2023-02-16T15:29:02.686Z,88
2023-02-16T15:30:11.719Z,89
2023-02-16T15:31:20.887Z,88.5
2023-02-16T15:32:29.136Z,88
2023-02-16T15:33:38.248Z,89
2023-02-16T15:34:47.556Z,88
2023-02-16T15:35:56.669Z,87.5
2023-02-16T15:37:05.921Z,88
2023-02-16T15:38:15.099Z,87.5
2023-02-16T15:39:24.104Z,87.5
2023-02-16T15:40:32.304Z,88
2023-02-16T15:41:40.540Z,89
2023-02-16T15:42:48.680Z,87.5
2023-02-16T15:43:56.944Z,88.5
2023-02-16T15:45:06.110Z,89
2023-02-16T15:46:15.385Z,88
2023-02-16T15:47:24.387Z,89
2023-02-16T15:48:33.656Z,89.5
2023-02-16T15:49:42.914Z,88.5
2023-02-16T15:50:52.006Z,89.5
2023-02-16T15:52:01.157Z,89.5
2023-02-16T15:53:10.384Z,88
2023-02-16T15:54:19.601Z,89
2023-02-16T15:55:28.780Z,90
2023-02-16T15:56:37.979Z,89
2023-02-16T15:57:47.136Z,89.5
2023-02-16T15:58:55.293Z,89.5
2023-02-16T16:00:04.431Z,88